sensor_id;sensor_type;location;lat;lon;timestamp;pressure;altitude;pressure_sealevel;temperature;humidity
47154;BME280;32907;41.412;2.164;2023-03-16T00:01:03;100656.66;;;20.11;49.05
47154;BME280;32907;41.412;2.164;2023-03-16T00:03:32;100710.19;;;20.50;48.66
47154;BME280;32907;41.412;2.164;2023-03-16T00:06:01;100658.53;;;20.16;48.63
47154;BME280;32907;41.412;2.164;2023-03-16T00:08:29;100687.44;;;20.35;48.32
47154;BME280;32907;41.412;2.164;2023-03-16T00:10:57;100685.06;;;20.29;48.32
47154;BME280;32907;41.412;2.164;2023-03-16T00:13:25;100702.34;;;20.43;48.59
47154;BME280;32907;41.412;2.164;2023-03-16T00:16:00;100675.50;;;20.31;48.59
47154;BME280;32907;41.412;2.164;2023-03-16T00:18:29;100688.53;;;20.34;48.64
47154;BME280;32907;41.412;2.164;2023-03-16T00:20:59;100686.16;;;20.28;48.72
47154;BME280;32907;41.412;2.164;2023-03-16T00:23:32;100708.13;;;20.36;48.61
47154;BME280;32907;41.412;2.164;2023-03-16T00:26:06;100705.19;;;20.33;48.82
47154;BME280;32907;41.412;2.164;2023-03-16T00:28:35;100704.38;;;20.32;48.23
47154;BME280;32907;41.412;2.164;2023-03-16T00:31:08;100694.56;;;20.31;48.50
47154;BME280;32907;41.412;2.164;2023-03-16T00:33:39;100678.97;;;20.13;48.50
47154;BME280;32907;41.412;2.164;2023-03-16T00:36:10;100704.69;;;20.26;48.53
47154;BME280;32907;41.412;2.164;2023-03-16T00:38:40;100688.22;;;20.12;48.21
47154;BME280;32907;41.412;2.164;2023-03-16T00:41:13;100650.84;;;19.94;48.55
47154;BME280;32907;41.412;2.164;2023-03-16T00:43:42;100697.34;;;20.26;48.30
47154;BME280;32907;41.412;2.164;2023-03-16T00:46:15;100694.31;;;20.28;48.46
47154;BME280;32907;41.412;2.164;2023-03-16T00:48:45;100690.50;;;20.29;48.67
47154;BME280;32907;41.412;2.164;2023-03-16T00:51:15;100645.13;;;19.95;48.63
47154;BME280;32907;41.412;2.164;2023-03-16T00:53:45;100687.13;;;20.13;48.38
47154;BME280;32907;41.412;2.164;2023-03-16T00:56:14;100690.94;;;20.12;48.60
47154;BME280;32907;41.412;2.164;2023-03-16T00:58:42;100679.31;;;20.06;48.21
47154;BME280;32907;41.412;2.164;2023-03-16T01:01:13;100697.63;;;20.25;48.53
47154;BME280;32907;41.412;2.164;2023-03-16T01:03:42;100645.44;;;19.89;48.05
47154;BME280;32907;41.412;2.164;2023-03-16T01:06:13;100670.84;;;20.08;48.01
47154;BME280;32907;41.412;2.164;2023-03-16T01:08:43;100687.84;;;20.24;48.19
47154;BME280;32907;41.412;2.164;2023-03-16T01:11:14;100619.44;;;19.77;47.84
47154;BME280;32907;41.412;2.164;2023-03-16T01:13:44;100637.06;;;19.85;47.95
47154;BME280;32907;41.412;2.164;2023-03-16T01:16:15;100611.09;;;19.69;48.20
47154;BME280;32907;41.412;2.164;2023-03-16T01:18:45;100682.75;;;20.17;48.32
47154;BME280;32907;41.412;2.164;2023-03-16T01:21:15;100677.59;;;20.16;47.89
47154;BME280;32907;41.412;2.164;2023-03-16T01:23:42;100675.69;;;20.16;47.87
47154;BME280;32907;41.412;2.164;2023-03-16T01:26:11;100640.00;;;19.89;47.89
47154;BME280;32907;41.412;2.164;2023-03-16T01:28:41;100684.69;;;20.11;47.84
47154;BME280;32907;41.412;2.164;2023-03-16T01:31:12;100680.34;;;20.10;48.02
47154;BME280;32907;41.412;2.164;2023-03-16T01:33:42;100616.53;;;19.69;47.88
47154;BME280;32907;41.412;2.164;2023-03-16T01:36:16;100651.44;;;19.91;47.58
47154;BME280;32907;41.412;2.164;2023-03-16T01:38:58;100656.25;;;19.99;47.70
47154;BME280;32907;41.412;2.164;2023-03-16T01:41:35;100662.22;;;20.01;47.69
47154;BME280;32907;41.412;2.164;2023-03-16T01:44:03;100673.06;;;20.06;47.44
47154;BME280;32907;41.412;2.164;2023-03-16T01:46:32;100672.78;;;20.07;47.66
47154;BME280;32907;41.412;2.164;2023-03-16T01:59:20;100614.13;;;19.67;46.91
47154;BME280;32907;41.412;2.164;2023-03-16T02:01:50;100652.53;;;19.90;47.20
47154;BME280;32907;41.412;2.164;2023-03-16T02:04:57;100654.69;;;19.93;46.71
47154;BME280;32907;41.412;2.164;2023-03-16T02:07:20;100621.50;;;19.62;46.45
47154;BME280;32907;41.412;2.164;2023-03-16T02:09:50;100620.09;;;19.64;46.47
47154;BME280;32907;41.412;2.164;2023-03-16T02:12:21;100636.59;;;19.78;46.36
47154;BME280;32907;41.412;2.164;2023-03-16T02:14:54;100570.75;;;19.47;46.57
47154;BME280;32907;41.412;2.164;2023-03-16T02:17:28;100610.19;;;19.78;46.39
47154;BME280;32907;41.412;2.164;2023-03-16T02:22:45;100627.47;;;19.93;46.45
47154;BME280;32907;41.412;2.164;2023-03-16T02:25:16;100627.47;;;19.93;45.97
47154;BME280;32907;41.412;2.164;2023-03-16T02:30:42;100618.53;;;19.87;46.25
47154;BME280;32907;41.412;2.164;2023-03-16T02:33:12;100609.16;;;19.74;46.10
47154;BME280;32907;41.412;2.164;2023-03-16T02:35:43;100630.56;;;19.81;46.29
47154;BME280;32907;41.412;2.164;2023-03-16T02:38:11;100577.19;;;19.56;46.38
47154;BME280;32907;41.412;2.164;2023-03-16T02:40:55;100610.28;;;19.68;46.45
47154;BME280;32907;41.412;2.164;2023-03-16T02:43:28;100619.97;;;19.79;46.43
47154;BME280;32907;41.412;2.164;2023-03-16T02:46:16;100600.00;;;19.65;46.58
47154;BME280;32907;41.412;2.164;2023-03-16T02:49:00;100611.81;;;19.79;46.44
47154;BME280;32907;41.412;2.164;2023-03-16T02:51:30;100581.28;;;19.59;46.48
47154;BME280;32907;41.412;2.164;2023-03-16T02:53:58;100537.69;;;19.35;46.49
47154;BME280;32907;41.412;2.164;2023-03-16T02:56:29;100433.34;;;18.72;46.59
47154;BME280;32907;41.412;2.164;2023-03-16T02:58:57;100593.03;;;19.78;46.30
47154;BME280;32907;41.412;2.164;2023-03-16T03:01:25;100558.72;;;19.53;46.60
47154;BME280;32907;41.412;2.164;2023-03-16T03:03:54;100597.16;;;19.75;45.99
47154;BME280;32907;41.412;2.164;2023-03-16T03:06:22;100593.09;;;19.73;46.49
47154;BME280;32907;41.412;2.164;2023-03-16T03:08:52;100566.28;;;19.61;46.44
47154;BME280;32907;41.412;2.164;2023-03-16T03:11:20;100546.78;;;19.49;46.31
47154;BME280;32907;41.412;2.164;2023-03-16T03:13:48;100559.53;;;19.53;46.31
47154;BME280;32907;41.412;2.164;2023-03-16T03:16:20;100566.00;;;19.63;46.35
47154;BME280;32907;41.412;2.164;2023-03-16T03:18:49;100540.53;;;19.48;46.53
47154;BME280;32907;41.412;2.164;2023-03-16T03:21:19;100570.81;;;19.71;46.52
47154;BME280;32907;41.412;2.164;2023-03-16T03:23:47;100532.25;;;19.35;46.67
47154;BME280;32907;41.412;2.164;2023-03-16T03:26:15;100574.44;;;19.61;46.47
47154;BME280;32907;41.412;2.164;2023-03-16T03:28:44;100582.03;;;19.64;46.70
47154;BME280;32907;41.412;2.164;2023-03-16T03:31:20;100535.25;;;19.33;46.81
47154;BME280;32907;41.412;2.164;2023-03-16T03:33:50;100513.28;;;19.24;47.19
47154;BME280;32907;41.412;2.164;2023-03-16T03:36:21;100577.16;;;19.61;47.02
47154;BME280;32907;41.412;2.164;2023-03-16T03:38:49;100584.53;;;19.61;46.88
47154;BME280;32907;41.412;2.164;2023-03-16T03:41:19;100586.91;;;19.67;46.92
47154;BME280;32907;41.412;2.164;2023-03-16T03:43:50;100574.22;;;19.58;46.65
47154;BME280;32907;41.412;2.164;2023-03-16T03:46:19;100566.81;;;19.63;46.88
47154;BME280;32907;41.412;2.164;2023-03-16T03:48:48;100521.94;;;19.32;46.40
47154;BME280;32907;41.412;2.164;2023-03-16T03:51:15;100541.88;;;19.51;46.34
47154;BME280;32907;41.412;2.164;2023-03-16T03:53:57;100574.13;;;19.68;46.33
47154;BME280;32907;41.412;2.164;2023-03-16T03:56:39;100578.50;;;19.64;45.68
47154;BME280;32907;41.412;2.164;2023-03-16T03:59:11;100577.75;;;19.58;46.12
47154;BME280;32907;41.412;2.164;2023-03-16T04:01:59;100534.38;;;19.38;46.04
47154;BME280;32907;41.412;2.164;2023-03-16T04:04:39;100585.81;;;19.68;45.70
47154;BME280;32907;41.412;2.164;2023-03-16T04:07:14;100574.22;;;19.52;46.01
47154;BME280;32907;41.412;2.164;2023-03-16T04:09:45;100594.00;;;19.63;45.91
47154;BME280;32907;41.412;2.164;2023-03-16T04:12:42;100559.97;;;19.37;46.03
47154;BME280;32907;41.412;2.164;2023-03-16T04:15:13;100589.16;;;19.60;45.76
47154;BME280;32907;41.412;2.164;2023-03-16T04:17:53;100568.03;;;19.47;45.75
47154;BME280;32907;41.412;2.164;2023-03-16T04:20:21;100581.56;;;19.57;45.96
47154;BME280;32907;41.412;2.164;2023-03-16T04:22:51;100553.94;;;19.40;45.73
47154;BME280;32907;41.412;2.164;2023-03-16T04:25:26;100604.25;;;19.71;46.25
47154;BME280;32907;41.412;2.164;2023-03-16T04:27:54;100592.97;;;19.59;46.20
47154;BME280;32907;41.412;2.164;2023-03-16T04:30:26;100606.97;;;19.71;46.51
47154;BME280;32907;41.412;2.164;2023-03-16T04:33:02;100605.66;;;19.69;46.29
47154;BME280;32907;41.412;2.164;2023-03-16T04:35:31;100574.56;;;19.46;46.23
47154;BME280;32907;41.412;2.164;2023-03-16T04:37:59;100601.13;;;19.59;46.52
47154;BME280;32907;41.412;2.164;2023-03-16T04:40:39;100610.28;;;19.68;46.41
47154;BME280;32907;41.412;2.164;2023-03-16T04:43:13;100595.19;;;19.52;46.35
47154;BME280;32907;41.412;2.164;2023-03-16T04:45:42;100597.31;;;19.60;46.25
47154;BME280;32907;41.412;2.164;2023-03-16T04:48:10;100609.47;;;19.68;46.13
47154;BME280;32907;41.412;2.164;2023-03-16T04:50:38;100557.53;;;19.35;46.24
47154;BME280;32907;41.412;2.164;2023-03-16T04:53:08;100601.13;;;19.54;45.92
47154;BME280;32907;41.412;2.164;2023-03-16T04:55:37;100621.22;;;19.63;45.84
47154;BME280;32907;41.412;2.164;2023-03-16T04:58:05;100609.22;;;19.64;46.00
47154;BME280;32907;41.412;2.164;2023-03-16T05:00:38;100603.53;;;19.66;45.83
47154;BME280;32907;41.412;2.164;2023-03-16T05:03:20;100570.81;;;19.42;45.86
47154;BME280;32907;41.412;2.164;2023-03-16T05:05:49;100584.09;;;19.43;46.07
47154;BME280;32907;41.412;2.164;2023-03-16T05:08:19;100536.75;;;19.15;45.88
47154;BME280;32907;41.412;2.164;2023-03-16T05:10:49;100582.13;;;19.49;45.65
47154;BME280;32907;41.412;2.164;2023-03-16T05:13:19;100570.84;;;19.37;45.84
47154;BME280;32907;41.412;2.164;2023-03-16T05:15:49;100595.69;;;19.59;46.10
47154;BME280;32907;41.412;2.164;2023-03-16T05:18:26;100602.97;;;19.64;45.87
47154;BME280;32907;41.412;2.164;2023-03-16T05:20:54;100598.63;;;19.63;46.20
47154;BME280;32907;41.412;2.164;2023-03-16T05:23:26;100576.75;;;19.44;46.31
47154;BME280;32907;41.412;2.164;2023-03-16T05:25:59;100608.72;;;19.62;46.80
47154;BME280;32907;41.412;2.164;2023-03-16T05:28:30;100584.31;;;19.52;46.68
47154;BME280;32907;41.412;2.164;2023-03-16T05:31:07;100600.56;;;19.62;46.54
47154;BME280;32907;41.412;2.164;2023-03-16T05:33:42;100454.28;;;18.67;46.66
47154;BME280;32907;41.412;2.164;2023-03-16T05:36:15;100524.22;;;19.19;46.49
47154;BME280;32907;41.412;2.164;2023-03-16T05:38:47;100587.47;;;19.64;46.44
47154;BME280;32907;41.412;2.164;2023-03-16T05:41:26;100574.22;;;19.52;46.53
47154;BME280;32907;41.412;2.164;2023-03-16T05:44:07;100572.34;;;19.48;46.74
47154;BME280;32907;41.412;2.164;2023-03-16T05:46:52;100523.44;;;19.19;46.47
47154;BME280;32907;41.412;2.164;2023-03-16T05:49:20;100582.09;;;19.54;45.94
47154;BME280;32907;41.412;2.164;2023-03-16T05:51:49;100592.91;;;19.64;45.93
47154;BME280;32907;41.412;2.164;2023-03-16T05:54:17;100587.47;;;19.64;45.47
47154;BME280;32907;41.412;2.164;2023-03-16T05:56:46;100588.03;;;19.61;45.22
47154;BME280;32907;41.412;2.164;2023-03-16T05:59:15;100591.34;;;19.58;44.27
47154;BME280;32907;41.412;2.164;2023-03-16T06:01:50;100594.88;;;19.59;44.66
47154;BME280;32907;41.412;2.164;2023-03-16T06:04:20;100574.34;;;19.42;44.58
47154;BME280;32907;41.412;2.164;2023-03-16T06:06:48;100515.41;;;19.04;45.01
47154;BME280;32907;41.412;2.164;2023-03-16T06:09:20;100566.22;;;19.37;44.88
47154;BME280;32907;41.412;2.164;2023-03-16T06:11:48;100600.31;;;19.59;45.21
47154;BME280;32907;41.412;2.164;2023-03-16T06:14:18;100593.78;;;19.54;45.03
47154;BME280;32907;41.412;2.164;2023-03-16T06:16:46;100563.53;;;19.32;45.18
47154;BME280;32907;41.412;2.164;2023-03-16T06:19:15;100531.31;;;19.15;45.43
47154;BME280;32907;41.412;2.164;2023-03-16T06:21:48;100616.88;;;19.62;46.97
47154;BME280;32907;41.412;2.164;2023-03-16T06:24:18;100610.63;;;19.62;45.80
47154;BME280;32907;41.412;2.164;2023-03-16T06:26:46;100544.06;;;19.20;46.01
47154;BME280;32907;41.412;2.164;2023-03-16T06:29:16;100600.84;;;19.55;45.98
47154;BME280;32907;41.412;2.164;2023-03-16T06:31:44;100610.81;;;19.70;45.38
47154;BME280;32907;41.412;2.164;2023-03-16T06:34:12;100606.47;;;19.69;45.74
47154;BME280;32907;41.412;2.164;2023-03-16T06:36:40;100614.00;;;19.77;45.26
47154;BME280;32907;41.412;2.164;2023-03-16T06:39:11;100588.53;;;19.68;45.09
47154;BME280;32907;41.412;2.164;2023-03-16T06:41:46;100548.50;;;19.40;45.40
47154;BME280;32907;41.412;2.164;2023-03-16T06:44:18;100553.13;;;19.39;45.00
47154;BME280;32907;41.412;2.164;2023-03-16T06:47:08;100580.47;;;19.53;45.23
47154;BME280;32907;41.412;2.164;2023-03-16T06:49:37;100569.13;;;19.46;45.66
47154;BME280;32907;41.412;2.164;2023-03-16T06:52:13;100539.59;;;19.34;45.03
47154;BME280;32907;41.412;2.164;2023-03-16T06:54:42;100602.66;;;19.70;45.14
47154;BME280;32907;41.412;2.164;2023-03-16T06:57:11;100622.13;;;19.82;44.91
47154;BME280;32907;41.412;2.164;2023-03-16T07:02:50;100622.66;;;19.84;45.01
47154;BME280;32907;41.412;2.164;2023-03-16T07:05:19;100601.25;;;19.73;44.97
47154;BME280;32907;41.412;2.164;2023-03-16T07:07:51;100576.66;;;19.59;44.99
47154;BME280;32907;41.412;2.164;2023-03-16T07:10:20;100624.56;;;19.84;46.17
47154;BME280;32907;41.412;2.164;2023-03-16T07:12:49;100620.63;;;19.95;51.09
47154;BME280;32907;41.412;2.164;2023-03-16T07:15:17;100595.28;;;20.00;49.14
47154;BME280;32907;41.412;2.164;2023-03-16T07:17:46;100568.69;;;19.92;47.22
47154;BME280;32907;41.412;2.164;2023-03-16T07:20:14;100635.19;;;20.33;45.83
47154;BME280;32907;41.412;2.164;2023-03-16T07:22:43;100613.56;;;20.18;45.65
47154;BME280;32907;41.412;2.164;2023-03-16T07:25:13;100625.44;;;20.27;45.57
47154;BME280;32907;41.412;2.164;2023-03-16T07:27:46;100641.13;;;20.35;44.52
47154;BME280;32907;41.412;2.164;2023-03-16T07:30:20;100631.19;;;20.26;44.36
47154;BME280;32907;41.412;2.164;2023-03-16T07:32:49;100615.81;;;20.11;44.44
47154;BME280;32907;41.412;2.164;2023-03-16T07:35:18;100581.53;;;19.86;44.55
47154;BME280;32907;41.412;2.164;2023-03-16T07:37:47;100653.00;;;20.21;44.13
47154;BME280;32907;41.412;2.164;2023-03-16T07:40:15;100640.56;;;20.15;44.00
47154;BME280;32907;41.412;2.164;2023-03-16T07:42:43;100657.59;;;20.25;43.88
47154;BME280;32907;41.412;2.164;2023-03-16T07:45:16;100649.44;;;20.25;43.54
47154;BME280;32907;41.412;2.164;2023-03-16T07:47:46;100659.81;;;20.23;43.61
47154;BME280;32907;41.412;2.164;2023-03-16T07:50:23;100541.16;;;19.40;43.78
47154;BME280;32907;41.412;2.164;2023-03-16T07:52:52;100661.72;;;20.23;43.55
47154;BME280;32907;41.412;2.164;2023-03-16T07:55:20;100639.78;;;20.14;43.82
47154;BME280;32907;41.412;2.164;2023-03-16T07:57:51;100631.06;;;20.12;44.04
47154;BME280;32907;41.412;2.164;2023-03-16T08:00:27;100655.16;;;20.24;43.65
47154;BME280;32907;41.412;2.164;2023-03-16T08:02:56;100636.50;;;20.12;43.99
47154;BME280;32907;41.412;2.164;2023-03-16T08:05:24;100659.22;;;20.26;43.45
47154;BME280;32907;41.412;2.164;2023-03-16T08:07:59;100640.03;;;20.12;43.48
47154;BME280;32907;41.412;2.164;2023-03-16T08:10:30;100604.28;;;19.95;43.47
47154;BME280;32907;41.412;2.164;2023-03-16T08:13:05;100649.44;;;20.25;43.48
47154;BME280;32907;41.412;2.164;2023-03-16T08:15:35;100656.78;;;20.25;43.79
47154;BME280;32907;41.412;2.164;2023-03-16T08:18:11;100641.31;;;20.20;43.54
47154;BME280;32907;41.412;2.164;2023-03-16T08:20:40;100605.28;;;20.04;44.19
47154;BME280;32907;41.412;2.164;2023-03-16T08:23:08;100631.88;;;20.12;43.83
47154;BME280;32907;41.412;2.164;2023-03-16T08:25:41;100670.06;;;20.31;43.72
47154;BME280;32907;41.412;2.164;2023-03-16T08:28:14;100666.00;;;20.29;43.60
47154;BME280;32907;41.412;2.164;2023-03-16T08:30:44;100648.66;;;20.20;43.56
47154;BME280;32907;41.412;2.164;2023-03-16T08:33:41;100644.56;;;20.22;43.60
47154;BME280;32907;41.412;2.164;2023-03-16T08:36:12;100662.94;;;20.35;43.88
47154;BME280;32907;41.412;2.164;2023-03-16T08:38:41;100670.59;;;20.33;43.66
47154;BME280;32907;41.412;2.164;2023-03-16T08:41:28;100646.25;;;20.18;43.38
47154;BME280;32907;41.412;2.164;2023-03-16T08:44:01;100656.56;;;20.21;43.73
47154;BME280;32907;41.412;2.164;2023-03-16T08:46:30;100665.72;;;20.30;43.96
47154;BME280;32907;41.412;2.164;2023-03-16T08:48:59;100638.97;;;20.14;43.90
47154;BME280;32907;41.412;2.164;2023-03-16T08:51:28;100657.91;;;20.24;45.33
47154;BME280;32907;41.412;2.164;2023-03-16T08:53:56;100638.59;;;20.20;46.59
47154;BME280;32907;41.412;2.164;2023-03-16T08:56:24;100624.34;;;20.28;45.18
47154;BME280;32907;41.412;2.164;2023-03-16T08:58:56;100651.84;;;20.56;45.72
47154;BME280;32907;41.412;2.164;2023-03-16T09:01:24;100668.50;;;20.73;45.00
47154;BME280;32907;41.412;2.164;2023-03-16T09:03:55;100677.69;;;20.77;44.48
47154;BME280;32907;41.412;2.164;2023-03-16T09:06:24;100669.53;;;20.77;44.52
47154;BME280;32907;41.412;2.164;2023-03-16T09:08:52;100658.72;;;20.72;44.69
47154;BME280;32907;41.412;2.164;2023-03-16T09:11:22;100641.88;;;20.46;44.52
47154;BME280;32907;41.412;2.164;2023-03-16T09:13:53;100675.84;;;20.54;44.55
47154;BME280;32907;41.412;2.164;2023-03-16T09:16:22;100616.47;;;20.27;44.31
47154;BME280;32907;41.412;2.164;2023-03-16T09:18:52;100667.59;;;20.59;44.47
47154;BME280;32907;41.412;2.164;2023-03-16T09:21:22;100654.94;;;20.44;44.53
47154;BME280;32907;41.412;2.164;2023-03-16T09:23:50;100680.00;;;20.46;45.37
47154;BME280;32907;41.412;2.164;2023-03-16T09:26:19;100645.47;;;20.36;44.73
47154;BME280;32907;41.412;2.164;2023-03-16T09:28:47;100533.53;;;19.71;44.94
47154;BME280;32907;41.412;2.164;2023-03-16T09:31:17;100625.69;;;20.31;44.30
47154;BME280;32907;41.412;2.164;2023-03-16T09:33:46;100644.31;;;20.48;44.15
47154;BME280;32907;41.412;2.164;2023-03-16T09:36:14;100639.69;;;20.43;44.36
47154;BME280;32907;41.412;2.164;2023-03-16T09:38:43;100664.00;;;20.63;44.07
47154;BME280;32907;41.412;2.164;2023-03-16T09:46:47;100639.69;;;20.43;42.96
47154;BME280;32907;41.412;2.164;2023-03-16T09:49:18;100643.78;;;20.46;42.27
47154;BME280;32907;41.412;2.164;2023-03-16T09:54:33;100653.00;;;20.50;40.69
47154;BME280;32907;41.412;2.164;2023-03-16T09:57:16;100655.19;;;20.48;39.75
47154;BME280;32907;41.412;2.164;2023-03-16T09:59:51;100657.13;;;20.47;40.36
47154;BME280;32907;41.412;2.164;2023-03-16T10:05:22;100640.56;;;20.38;39.52
47154;BME280;32907;41.412;2.164;2023-03-16T10:08:24;100660.44;;;20.39;38.58
47154;BME280;32907;41.412;2.164;2023-03-16T10:19:33;100652.56;;;20.37;38.02
47154;BME280;32907;41.412;2.164;2023-03-16T10:22:18;100649.25;;;20.40;38.28
47154;BME280;32907;41.412;2.164;2023-03-16T10:24:58;100641.38;;;20.39;38.53
47154;BME280;32907;41.412;2.164;2023-03-16T10:27:37;100644.59;;;20.46;38.97
47154;BME280;32907;41.412;2.164;2023-03-16T10:32:47;100642.91;;;20.50;38.59
47154;BME280;32907;41.412;2.164;2023-03-16T10:35:30;100641.28;;;20.49;38.16
47154;BME280;32907;41.412;2.164;2023-03-16T10:38:00;100604.28;;;20.19;38.26
47154;BME280;32907;41.412;2.164;2023-03-16T10:40:35;100611.25;;;20.30;37.31
47154;BME280;32907;41.412;2.164;2023-03-16T10:43:14;100600.63;;;20.29;38.12
47154;BME280;32907;41.412;2.164;2023-03-16T10:45:42;100629.56;;;20.49;38.24
47154;BME280;32907;41.412;2.164;2023-03-16T10:48:17;100521.91;;;19.90;38.54
47154;BME280;32907;41.412;2.164;2023-03-16T10:50:51;100598.63;;;20.39;38.29
47154;BME280;32907;41.412;2.164;2023-03-16T10:53:24;100555.88;;;20.16;38.37
47154;BME280;32907;41.412;2.164;2023-03-16T10:56:07;100616.72;;;20.54;38.46
47154;BME280;32907;41.412;2.164;2023-03-16T10:58:39;100544.47;;;20.14;38.48
47154;BME280;32907;41.412;2.164;2023-03-16T11:01:11;100622.31;;;20.63;39.42
47154;BME280;32907;41.412;2.164;2023-03-16T11:03:40;100553.91;;;20.22;39.42
47154;BME280;32907;41.412;2.164;2023-03-16T11:06:18;100619.91;;;20.61;38.73
47154;BME280;32907;41.412;2.164;2023-03-16T11:08:47;100618.69;;;20.67;39.62
47154;BME280;32907;41.412;2.164;2023-03-16T11:11:17;100622.81;;;20.65;38.59
47154;BME280;32907;41.412;2.164;2023-03-16T11:13:47;100618.19;;;20.65;39.02
47154;BME280;32907;41.412;2.164;2023-03-16T11:16:45;100619.25;;;20.70;38.74
47154;BME280;32907;41.412;2.164;2023-03-16T11:19:34;100612.38;;;20.72;38.79
47154;BME280;32907;41.412;2.164;2023-03-16T11:22:09;100590.84;;;20.52;38.66
47154;BME280;32907;41.412;2.164;2023-03-16T11:27:39;100624.84;;;20.78;39.05
47154;BME280;32907;41.412;2.164;2023-03-16T11:30:21;100564.25;;;20.44;37.94
47154;BME280;32907;41.412;2.164;2023-03-16T11:32:51;100599.94;;;20.66;38.27
47154;BME280;32907;41.412;2.164;2023-03-16T11:35:52;100601.63;;;20.62;37.49
47154;BME280;32907;41.412;2.164;2023-03-16T11:38:42;100594.03;;;20.59;37.36
47154;BME280;32907;41.412;2.164;2023-03-16T11:41:24;100585.69;;;20.50;37.78
47154;BME280;32907;41.412;2.164;2023-03-16T11:43:56;100616.72;;;20.73;38.42
47154;BME280;32907;41.412;2.164;2023-03-16T12:07:34;100587.63;;;20.87;38.85
47154;BME280;32907;41.412;2.164;2023-03-16T12:10:15;100583.81;;;20.88;38.75
47154;BME280;32907;41.412;2.164;2023-03-16T12:13:11;100575.69;;;20.83;38.69
47154;BME280;32907;41.412;2.164;2023-03-16T12:16:01;100549.88;;;20.62;37.71
47154;BME280;32907;41.412;2.164;2023-03-16T12:18:39;100578.94;;;20.85;37.90
47154;BME280;32907;41.412;2.164;2023-03-16T12:21:21;100575.94;;;20.87;38.03
47154;BME280;32907;41.412;2.164;2023-03-16T12:23:55;100551.03;;;20.75;38.57
47154;BME280;32907;41.412;2.164;2023-03-16T12:26:28;100576.13;;;20.90;38.48
47154;BME280;32907;41.412;2.164;2023-03-16T12:29:06;100564.72;;;20.88;38.60
47154;BME280;32907;41.412;2.164;2023-03-16T12:34:36;100556.97;;;20.95;38.38
47154;BME280;32907;41.412;2.164;2023-03-16T12:37:18;100562.94;;;20.98;37.02
47154;BME280;32907;41.412;2.164;2023-03-16T12:40:36;100552.53;;;21.00;37.13
47154;BME280;32907;41.412;2.164;2023-03-16T12:45:50;100540.41;;;20.92;37.14
47154;BME280;32907;41.412;2.164;2023-03-16T12:48:31;100550.84;;;21.04;36.10
47154;BME280;32907;41.412;2.164;2023-03-16T12:51:02;100480.09;;;20.61;35.78
47154;BME280;32907;41.412;2.164;2023-03-16T12:56:08;100550.56;;;21.05;36.66
47154;BME280;32907;41.412;2.164;2023-03-16T12:59:04;100504.09;;;20.97;36.04
47154;BME280;32907;41.412;2.164;2023-03-16T13:01:41;100517.84;;;21.05;36.63
47154;BME280;32907;41.412;2.164;2023-03-16T13:04:12;100535.88;;;21.20;36.87
47154;BME280;32907;41.412;2.164;2023-03-16T13:06:47;100526.06;;;21.19;35.67
47154;BME280;32907;41.412;2.164;2023-03-16T13:09:21;100513.38;;;21.09;35.67
47154;BME280;32907;41.412;2.164;2023-03-16T13:11:53;100446.47;;;20.71;34.42
47154;BME280;32907;41.412;2.164;2023-03-16T13:14:42;100489.34;;;20.98;34.51
47154;BME280;32907;41.412;2.164;2023-03-16T13:23:16;100508.16;;;21.13;33.14
47154;BME280;32907;41.412;2.164;2023-03-16T13:28:32;100470.75;;;20.86;34.06
47154;BME280;32907;41.412;2.164;2023-03-16T13:31:02;100469.03;;;20.90;34.33
47154;BME280;32907;41.412;2.164;2023-03-16T13:33:33;100505.38;;;21.18;34.05
47154;BME280;32907;41.412;2.164;2023-03-16T13:36:04;100462.69;;;20.94;34.28
47154;BME280;32907;41.412;2.164;2023-03-16T13:38:33;100499.59;;;21.19;33.72
47154;BME280;32907;41.412;2.164;2023-03-16T13:41:04;100497.06;;;21.23;34.23
47154;BME280;32907;41.412;2.164;2023-03-16T13:43:42;100489.81;;;21.18;33.58
47154;BME280;32907;41.412;2.164;2023-03-16T13:46:20;100494.34;;;21.23;33.92
47154;BME280;32907;41.412;2.164;2023-03-16T13:48:50;100486.56;;;21.16;34.37
47154;BME280;32907;41.412;2.164;2023-03-16T13:51:21;100499.59;;;21.19;33.94
47154;BME280;32907;41.412;2.164;2023-03-16T13:53:50;100481.59;;;21.05;34.17
47154;BME280;32907;41.412;2.164;2023-03-16T13:56:25;100495.97;;;21.24;33.72
47154;BME280;32907;41.412;2.164;2023-03-16T13:58:57;100499.22;;;21.26;34.31
47154;BME280;32907;41.412;2.164;2023-03-16T14:01:28;100413.59;;;20.81;33.83
47154;BME280;32907;41.412;2.164;2023-03-16T14:03:59;100481.63;;;21.18;33.91
47154;BME280;32907;41.412;2.164;2023-03-16T14:06:35;100489.97;;;21.27;33.96
47154;BME280;32907;41.412;2.164;2023-03-16T14:09:05;100475.66;;;21.16;34.41
47154;BME280;32907;41.412;2.164;2023-03-16T14:11:34;100454.03;;;21.06;35.00
47154;BME280;32907;41.412;2.164;2023-03-16T14:14:15;100492.69;;;21.27;34.45
47154;BME280;32907;41.412;2.164;2023-03-16T14:16:44;100502.38;;;21.33;35.43
47154;BME280;32907;41.412;2.164;2023-03-16T14:19:23;100509.47;;;21.34;35.72
47154;BME280;32907;41.412;2.164;2023-03-16T14:22:01;100511.66;;;21.32;35.75
47154;BME280;32907;41.412;2.164;2023-03-16T14:24:36;100439.41;;;20.83;36.32
47154;BME280;32907;41.412;2.164;2023-03-16T14:27:16;100522.56;;;21.32;36.56
47154;BME280;32907;41.412;2.164;2023-03-16T14:29:52;100512.28;;;21.29;37.13
47154;BME280;32907;41.412;2.164;2023-03-16T14:32:23;100520.16;;;21.31;37.28
47154;BME280;32907;41.412;2.164;2023-03-16T14:35:15;100469.25;;;20.93;37.80
47154;BME280;32907;41.412;2.164;2023-03-16T14:37:44;100528.69;;;21.24;37.84
47154;BME280;32907;41.412;2.164;2023-03-16T14:40:30;100500.88;;;21.08;38.15
47154;BME280;32907;41.412;2.164;2023-03-16T14:43:00;100521.13;;;21.21;37.82